EDT,Max TemperatureF,Mean TemperatureF,Min TemperatureF,Max Dew PointF,MeanDew PointF,Min DewpointF,Max Humidity, Mean Humidity, Min Humidity, Max Sea Level PressureIn, Mean Sea Level PressureIn, Min Sea Level PressureIn, Max VisibilityMiles, Mean VisibilityMiles, Min VisibilityMiles, Max Wind SpeedMPH, Mean Wind SpeedMPH, Max Gust SpeedMPH,PrecipitationIn, CloudCover, Events, WindDirDegrees
2012-10-1,69,63,57,63,60,55,94,86,73,29.96,29.93,29.90,10,9,7,5,1,,0.00,5,Rain,75
2012-10-2,80,73,66,77,73,64,100,91,84,29.98,29.93,29.88,10,8,1,12,5,,0.01,5,Rain,164
2012-10-3,87,80,73,75,74,72,100,88,62,30.15,30.08,29.99,10,8,3,9,5,,0.01,4,Rain,195
2012-10-4,84,75,66,73,67,61,100,81,45,30.20,30.15,30.11,10,8,1,12,2,20,0.01,2,,239
2012-10-5,80,70,60,66,61,54,100,84,39,30.15,30.11,30.03,10,7,0,8,1,,0.00,2,Fog,23
2012-10-6,82,70,57,66,60,57,100,93,48,30.03,29.97,29.86,10,4,0,12,1,,0.00,4,Fog,208
2012-10-7,66,60,53,57,54,48,100,88,63,30.14,30.05,29.99,10,8,2,13,6,18,0.03,8,Rain,353
2012-10-8,59,56,53,57,53,48,100,88,72,30.25,30.17,30.10,10,9,1,14,6,18,1.97,8,Rain-Thunderstorm,5
2012-10-9,60,58,57,61,59,57,100,98,94,30.11,30.07,30.05,10,4,2,9,5,,0.08,8,Rain,331
2012-10-10,69,62,55,59,56,52,100,85,53,30.06,30.01,29.93,10,7,0,10,3,,0.00,5,Fog,249
2012-10-11,64,57,50,54,42,36,94,57,34,30.31,30.22,30.06,10,10,10,12,4,18,0.00,0,,353
2012-10-12,69,61,53,50,46,39,88,51,33,30.33,30.22,30.17,10,10,10,13,8,17,0.00,0,,10
2012-10-13,64,55,46,48,45,34,100,74,44,30.47,30.40,30.39,10,10,10,8,4,,0.00,0,,82
2012-10-14,78,60,42,59,53,43,100,73,39,30.35,30.19,30.05,10,10,7,15,3,18,0.00,1,,184
2012-10-15,75,66,57,64,61,55,100,83,61,30.04,29.86,29.69,10,10,2,16,5,28,0.54,3,Rain-Thunderstorm,214
2012-10-16,66,56,46,59,47,41,100,68,42,29.94,29.88,29.78,10,10,7,14,6,22,0.00,0,,338
2012-10-17,57,45,44,54,45,45,100,98,88,30.00,29.96,29.93,10,10,5,5,0,,0.00,0,,130
2012-10-18,73,58,44,61,51,45,100,86,65,29.97,29.95,29.87,10,10,7,7,1,,0.00,2,,130
2012-10-19,75,70,60,70,65,61,100,88,73,29.78,29.74,29.70,10,8,1,9,4,,0.00,2,,172
2012-10-20,75,62,48,55,48,41,100,61,31,29.92,29.82,29.77,10,10,10,12,4,17,0.00,0,,236
2012-10-21,66,56,44,48,44,37,100,69,35,30.14,30.06,29.92,10,8,5,12,3,18,0.00,0,,329
2012-10-22,69,54,39,54,43,39,100,69,33,30.22,30.18,30.14,10,10,7,7,1,,0.00,0,,328
2012-10-23,66,58,51,57,53,48,88,76,59,30.19,30.15,30.11,10,8,5,4,1,,0.00,0,,210
2012-10-24,80,66,51,63,57,52,100,78,42,30.15,30.12,30.08,10,9,5,7,2,,0.00,0,,220
2012-10-25,78,64,50,64,60,48,100,79,51,30.19,30.15,30.13,10,8,1,9,3,,0.00,2,,59
2012-10-26,73,68,64,66,65,63,100,87,73,30.13,30.06,29.95,10,8,4,14,5,17,0.00,6,Rain,24
2012-10-27,69,66,62,64,62,61,100,88,73,29.95,29.81,29.69,10,9,4,18,10,26,0.25,6,Rain,28
2012-10-28,62,61,60,61,60,59,100,95,88,29.63,29.51,29.44,10,10,10,16,14,29,0.26,8,Rain,8
2012-10-29,57,52,44,57,51,45,100,99,94,29.35,29.20,29.10,10,8,4,22,15,32,0.62,8,Rain,283
2012-10-30,46,44,42,43,41,37,100,84,71,29.57,29.44,29.16,10,10,5,21,13,31,0.04,6,Rain,205
2012-10-31,55,47,39,43,39,37,93,72,51,29.72,29.64,29.56,10,10,7,14,6,21,0.00,2,,221